sensor_id;sensor_type;location;lat;lon;timestamp;pressure;altitude;pressure_sealevel;temperature;humidity
38466;BME280;24244;51.950;5.902;2023-05-11T00:01:28;101323.16;;;14.97;85.27
38466;BME280;24244;51.950;5.902;2023-05-11T00:03:55;101320.47;;;14.97;85.64
38466;BME280;24244;51.950;5.902;2023-05-11T00:06:23;101321.50;;;14.96;85.55
38466;BME280;24244;51.950;5.902;2023-05-11T00:08:51;101319.84;;;14.95;85.38
38466;BME280;24244;51.950;5.902;2023-05-11T00:11:18;101320.88;;;14.94;85.47
38466;BME280;24244;51.950;5.902;2023-05-11T00:13:45;101314.69;;;14.93;85.70
38466;BME280;24244;51.950;5.902;2023-05-11T00:16:11;101310.16;;;14.94;85.43
38466;BME280;24244;51.950;5.902;2023-05-11T00:18:38;101315.09;;;14.90;85.64
38466;BME280;24244;51.950;5.902;2023-05-11T00:21:05;101306.88;;;14.92;85.74
38466;BME280;24244;51.950;5.902;2023-05-11T00:23:32;101312.44;;;14.90;85.70
38466;BME280;24244;51.950;5.902;2023-05-11T00:26:00;101307.28;;;14.88;85.73
38466;BME280;24244;51.950;5.902;2023-05-11T00:28:26;101310.97;;;14.87;85.65
38466;BME280;24244;51.950;5.902;2023-05-11T00:30:54;101302.94;;;14.87;85.89
38466;BME280;24244;51.950;5.902;2023-05-11T00:33:21;101297.59;;;14.87;85.74
38466;BME280;24244;51.950;5.902;2023-05-11T00:35:48;101299.44;;;14.87;85.75
38466;BME280;24244;51.950;5.902;2023-05-11T00:38:17;101294.91;;;14.87;85.74
38466;BME280;24244;51.950;5.902;2023-05-11T00:40:43;101299.44;;;14.87;85.80
38466;BME280;24244;51.950;5.902;2023-05-11T00:43:11;101303.97;;;14.86;85.87
38466;BME280;24244;51.950;5.902;2023-05-11T00:45:38;101305.81;;;14.86;85.58
38466;BME280;24244;51.950;5.902;2023-05-11T00:48:06;101300.69;;;14.84;85.76
38466;BME280;24244;51.950;5.902;2023-05-11T00:50:33;101295.53;;;14.83;85.98
38466;BME280;24244;51.950;5.902;2023-05-11T00:53:00;101298.19;;;14.83;86.01
38466;BME280;24244;51.950;5.902;2023-05-11T00:55:28;101303.56;;;14.83;86.00
38466;BME280;24244;51.950;5.902;2023-05-11T00:57:55;101308.09;;;14.82;85.88
38466;BME280;24244;51.950;5.902;2023-05-11T01:00:23;101310.75;;;14.82;86.12
38466;BME280;24244;51.950;5.902;2023-05-11T01:02:51;101307.06;;;14.83;85.99
38466;BME280;24244;51.950;5.902;2023-05-11T01:05:21;101306.22;;;14.83;86.00
38466;BME280;24244;51.950;5.902;2023-05-11T01:08:07;101308.91;;;14.83;85.95
38466;BME280;24244;51.950;5.902;2023-05-11T01:10:41;101313.63;;;14.81;86.04
38466;BME280;24244;51.950;5.902;2023-05-11T01:13:16;101314.66;;;14.80;85.95
38466;BME280;24244;51.950;5.902;2023-05-11T01:15:50;101313.00;;;14.79;86.06
38466;BME280;24244;51.950;5.902;2023-05-11T01:18:24;101308.66;;;14.78;86.06
38466;BME280;24244;51.950;5.902;2023-05-11T01:20:57;101307.88;;;14.77;86.26
38466;BME280;24244;51.950;5.902;2023-05-11T01:23:57;101311.34;;;14.78;86.46
38466;BME280;24244;51.950;5.902;2023-05-11T01:26:33;101308.88;;;14.76;86.36
38466;BME280;24244;51.950;5.902;2023-05-11T01:32:28;101309.91;;;14.75;86.47
38466;BME280;24244;51.950;5.902;2023-05-11T01:35:06;101315.25;;;14.75;86.56
38466;BME280;24244;51.950;5.902;2023-05-11T01:37:34;101315.44;;;14.74;86.54
38466;BME280;24244;51.950;5.902;2023-05-11T01:40:04;101311.13;;;14.73;86.83
38466;BME280;24244;51.950;5.902;2023-05-11T01:42:40;101319.97;;;14.73;86.73
38466;BME280;24244;51.950;5.902;2023-05-11T01:45:10;101321.19;;;14.71;86.75
38466;BME280;24244;51.950;5.902;2023-05-11T01:47:40;101326.16;;;14.74;86.63
38466;BME280;24244;51.950;5.902;2023-05-11T01:50:09;101324.31;;;14.74;86.70
38466;BME280;24244;51.950;5.902;2023-05-11T01:52:38;101316.28;;;14.74;86.57
38466;BME280;24244;51.950;5.902;2023-05-11T01:55:08;101320.81;;;14.74;86.66
38466;BME280;24244;51.950;5.902;2023-05-11T01:57:37;101324.31;;;14.74;86.73
38466;BME280;24244;51.950;5.902;2023-05-11T02:00:08;101324.91;;;14.70;86.86
38466;BME280;24244;51.950;5.902;2023-05-11T02:02:35;101328.63;;;14.69;87.22
38466;BME280;24244;51.950;5.902;2023-05-11T02:05:05;101331.09;;;14.70;87.23
38466;BME280;24244;51.950;5.902;2023-05-11T02:07:34;101334.38;;;14.72;87.41
38466;BME280;24244;51.950;5.902;2023-05-11T02:10:03;101329.66;;;14.74;87.27
38466;BME280;24244;51.950;5.902;2023-05-11T02:12:30;101330.28;;;14.76;86.94
38466;BME280;24244;51.950;5.902;2023-05-11T02:15:00;101335.66;;;14.76;87.26
38466;BME280;24244;51.950;5.902;2023-05-11T02:17:29;101331.13;;;14.77;87.23
38466;BME280;24244;51.950;5.902;2023-05-11T02:19:57;101339.16;;;14.77;87.16
38466;BME280;24244;51.950;5.902;2023-05-11T02:22:28;101338.09;;;14.78;87.20
38466;BME280;24244;51.950;5.902;2023-05-11T02:24:56;101334.63;;;14.77;87.29
38466;BME280;24244;51.950;5.902;2023-05-11T02:27:23;101333.56;;;14.78;87.39
38466;BME280;24244;51.950;5.902;2023-05-11T02:29:53;101336.25;;;14.78;87.47
38466;BME280;24244;51.950;5.902;2023-05-11T02:32:21;101336.06;;;14.80;87.48
38466;BME280;24244;51.950;5.902;2023-05-11T02:34:54;101330.72;;;14.80;87.27
38466;BME280;24244;51.950;5.902;2023-05-11T02:37:24;101330.91;;;14.78;87.41
38466;BME280;24244;51.950;5.902;2023-05-11T02:40:03;101336.47;;;14.77;87.29
38466;BME280;24244;51.950;5.902;2023-05-11T02:42:35;101329.47;;;14.76;87.64
38466;BME280;24244;51.950;5.902;2023-05-11T02:45:06;101329.66;;;14.74;87.64
38466;BME280;24244;51.950;5.902;2023-05-11T02:47:38;101332.34;;;14.74;87.55
38466;BME280;24244;51.950;5.902;2023-05-11T02:50:06;101322.47;;;14.75;87.56
38466;BME280;24244;51.950;5.902;2023-05-11T02:52:35;101330.50;;;14.75;87.32
38466;BME280;24244;51.950;5.902;2023-05-11T02:55:07;101325.53;;;14.72;87.41
38466;BME280;24244;51.950;5.902;2023-05-11T02:57:34;101326.97;;;14.74;87.75
38466;BME280;24244;51.950;5.902;2023-05-11T03:00:01;101328.00;;;14.73;87.66
38466;BME280;24244;51.950;5.902;2023-05-11T03:02:29;101323.47;;;14.74;87.72
38466;BME280;24244;51.950;5.902;2023-05-11T03:04:56;101320.16;;;14.72;87.42
38466;BME280;24244;51.950;5.902;2023-05-11T03:07:23;101321.19;;;14.71;87.33
38466;BME280;24244;51.950;5.902;2023-05-11T03:09:51;101318.94;;;14.68;87.48
38466;BME280;24244;51.950;5.902;2023-05-11T03:12:20;101326.09;;;14.61;87.91
38466;BME280;24244;51.950;5.902;2023-05-11T03:14:47;101325.88;;;14.56;87.96
38466;BME280;24244;51.950;5.902;2023-05-11T03:17:15;101325.88;;;14.56;88.30
38466;BME280;24244;51.950;5.902;2023-05-11T03:19:42;101325.88;;;14.56;88.08
38466;BME280;24244;51.950;5.902;2023-05-11T03:22:09;101318.69;;;14.56;88.02
38466;BME280;24244;51.950;5.902;2023-05-11T03:24:38;101317.63;;;14.57;88.05
38466;BME280;24244;51.950;5.902;2023-05-11T03:27:06;101322.16;;;14.57;88.21
38466;BME280;24244;51.950;5.902;2023-05-11T03:29:35;101318.47;;;14.58;88.17
38466;BME280;24244;51.950;5.902;2023-05-11T03:32:03;101316.41;;;14.60;88.03
38466;BME280;24244;51.950;5.902;2023-05-11T03:34:31;101319.72;;;14.62;87.90
38466;BME280;24244;51.950;5.902;2023-05-11T03:36:58;101317.88;;;14.62;88.06
38466;BME280;24244;51.950;5.902;2023-05-11T03:39:28;101311.91;;;14.60;87.78
38466;BME280;24244;51.950;5.902;2023-05-11T03:41:58;101311.44;;;14.57;88.34
38466;BME280;24244;51.950;5.902;2023-05-11T03:47:52;101316.19;;;14.55;88.22
38466;BME280;24244;51.950;5.902;2023-05-11T03:50:20;101313.34;;;14.56;88.21
38466;BME280;24244;51.950;5.902;2023-05-11T03:52:47;101316.81;;;14.57;88.08
38466;BME280;24244;51.950;5.902;2023-05-11T03:55:14;101315.78;;;14.58;88.36
38466;BME280;24244;51.950;5.902;2023-05-11T03:57:42;101320.13;;;14.59;88.19
38466;BME280;24244;51.950;5.902;2023-05-11T04:00:11;101326.09;;;14.61;88.42
38466;BME280;24244;51.950;5.902;2023-05-11T04:02:38;101318.06;;;14.61;88.51
38466;BME280;24244;51.950;5.902;2023-05-11T04:05:10;101324.25;;;14.61;88.28
38466;BME280;24244;51.950;5.902;2023-05-11T04:07:38;101320.56;;;14.62;88.40
38466;BME280;24244;51.950;5.902;2023-05-11T04:10:06;101325.69;;;14.64;88.10
38466;BME280;24244;51.950;5.902;2023-05-11T04:12:33;101318.50;;;14.64;88.33
38466;BME280;24244;51.950;5.902;2023-05-11T04:14:59;101322.22;;;14.63;88.34
38466;BME280;24244;51.950;5.902;2023-05-11T04:17:26;101323.25;;;14.62;88.13
38466;BME280;24244;51.950;5.902;2023-05-11T04:19:53;101328.38;;;14.64;88.28
38466;BME280;24244;51.950;5.902;2023-05-11T04:22:21;101324.66;;;14.65;88.09
38466;BME280;24244;51.950;5.902;2023-05-11T04:24:49;101335.16;;;14.60;88.20
38466;BME280;24244;51.950;5.902;2023-05-11T04:27:15;101337.19;;;14.58;88.48
38466;BME280;24244;51.950;5.902;2023-05-11T04:29:42;101341.53;;;14.59;88.67
38466;BME280;24244;51.950;5.902;2023-05-11T04:32:12;101345.84;;;14.60;88.56
38466;BME280;24244;51.950;5.902;2023-05-11T04:34:39;101343.19;;;14.60;88.57
38466;BME280;24244;51.950;5.902;2023-05-11T04:37:06;101345.03;;;14.59;88.78
38466;BME280;24244;51.950;5.902;2023-05-11T04:39:34;101342.16;;;14.61;88.61
38466;BME280;24244;51.950;5.902;2023-05-11T04:42:01;101343.81;;;14.62;88.55
38466;BME280;24244;51.950;5.902;2023-05-11T04:44:27;101344.63;;;14.62;88.56
38466;BME280;24244;51.950;5.902;2023-05-11T04:46:55;101336.81;;;14.61;88.40
38466;BME280;24244;51.950;5.902;2023-05-11T04:49:22;101347.88;;;14.58;88.42
38466;BME280;24244;51.950;5.902;2023-05-11T04:51:49;101347.88;;;14.58;88.76
38466;BME280;24244;51.950;5.902;2023-05-11T04:54:16;101350.56;;;14.58;88.74
38466;BME280;24244;51.950;5.902;2023-05-11T04:56:44;101355.69;;;14.53;88.74
38466;BME280;24244;51.950;5.902;2023-05-11T04:59:11;101350.72;;;14.49;88.76
38466;BME280;24244;51.950;5.902;2023-05-11T05:01:37;101358.34;;;14.46;88.95
38466;BME280;24244;51.950;5.902;2023-05-11T05:04:05;101353.16;;;14.44;88.82
38466;BME280;24244;51.950;5.902;2023-05-11T05:06:32;101354.19;;;14.43;89.01
38466;BME280;24244;51.950;5.902;2023-05-11T05:08:59;101361.00;;;14.46;89.05
38466;BME280;24244;51.950;5.902;2023-05-11T05:11:29;101357.50;;;14.45;89.01
38466;BME280;24244;51.950;5.902;2023-05-11T05:13:57;101360.56;;;14.42;88.89
38466;BME280;24244;51.950;5.902;2023-05-11T05:16:24;101360.78;;;14.41;89.21
38466;BME280;24244;51.950;5.902;2023-05-11T05:18:50;101366.75;;;14.43;89.29
38466;BME280;24244;51.950;5.902;2023-05-11T05:21:18;101365.53;;;14.45;89.14
38466;BME280;24244;51.950;5.902;2023-05-11T05:23:44;101368.84;;;14.47;89.13
38466;BME280;24244;51.950;5.902;2023-05-11T05:26:11;101371.31;;;14.49;89.18
38466;BME280;24244;51.950;5.902;2023-05-11T05:28:38;101372.13;;;14.49;89.15
38466;BME280;24244;51.950;5.902;2023-05-11T05:31:06;101372.94;;;14.50;88.97
38466;BME280;24244;51.950;5.902;2023-05-11T05:33:33;101375.44;;;14.52;89.11
38466;BME280;24244;51.950;5.902;2023-05-11T05:36:00;101376.25;;;14.52;88.82
38466;BME280;24244;51.950;5.902;2023-05-11T05:38:27;101377.09;;;14.53;89.10
38466;BME280;24244;51.950;5.902;2023-05-11T05:40:54;101380.41;;;14.55;88.98
38466;BME280;24244;51.950;5.902;2023-05-11T05:43:21;101385.13;;;14.53;89.02
38466;BME280;24244;51.950;5.902;2023-05-11T05:45:48;101387.16;;;14.50;88.93
38466;BME280;24244;51.950;5.902;2023-05-11T05:48:16;101390.25;;;14.47;89.10
38466;BME280;24244;51.950;5.902;2023-05-11T05:50:43;101395.13;;;14.44;88.86
38466;BME280;24244;51.950;5.902;2023-05-11T05:53:09;101393.06;;;14.39;89.19
38466;BME280;24244;51.950;5.902;2023-05-11T05:55:36;101396.31;;;14.35;89.41
38466;BME280;24244;51.950;5.902;2023-05-11T05:58:03;101392.59;;;14.36;89.52
38466;BME280;24244;51.950;5.902;2023-05-11T06:00:30;101399.25;;;14.40;89.52
38466;BME280;24244;51.950;5.902;2023-05-11T06:02:56;101398.66;;;14.44;89.55
38466;BME280;24244;51.950;5.902;2023-05-11T06:05:25;101397.44;;;14.47;89.58
38466;BME280;24244;51.950;5.902;2023-05-11T06:07:51;101405.69;;;14.52;89.45
38466;BME280;24244;51.950;5.902;2023-05-11T06:10:36;101406.97;;;14.56;89.02
38466;BME280;24244;51.950;5.902;2023-05-11T06:13:03;101405.91;;;14.57;89.31
38466;BME280;24244;51.950;5.902;2023-05-11T06:15:30;101406.38;;;14.61;89.35
38466;BME280;24244;51.950;5.902;2023-05-11T06:17:57;101406.41;;;14.67;89.22
38466;BME280;24244;51.950;5.902;2023-05-11T06:20:25;101401.47;;;14.71;89.02
38466;BME280;24244;51.950;5.902;2023-05-11T06:22:52;101406.03;;;14.70;89.15
38466;BME280;24244;51.950;5.902;2023-05-11T06:25:19;101407.09;;;14.76;89.45
38466;BME280;24244;51.950;5.902;2023-05-11T06:27:45;101407.50;;;14.79;89.20
38466;BME280;24244;51.950;5.902;2023-05-11T06:30:12;101405.25;;;14.83;89.10
38466;BME280;24244;51.950;5.902;2023-05-11T06:32:39;101404.44;;;14.82;88.89
38466;BME280;24244;51.950;5.902;2023-05-11T06:35:07;101408.53;;;14.85;89.15
38466;BME280;24244;51.950;5.902;2023-05-11T06:37:35;101405.47;;;14.88;88.80
38466;BME280;24244;51.950;5.902;2023-05-11T06:40:02;101402.44;;;14.91;89.05
38466;BME280;24244;51.950;5.902;2023-05-11T06:42:29;101404.88;;;14.93;88.73
38466;BME280;24244;51.950;5.902;2023-05-11T06:44:56;101404.88;;;14.93;88.85
38466;BME280;24244;51.950;5.902;2023-05-11T06:47:23;101407.81;;;14.98;88.95
38466;BME280;24244;51.950;5.902;2023-05-11T06:49:50;101405.72;;;15.00;88.96
38466;BME280;24244;51.950;5.902;2023-05-11T06:52:17;101396.28;;;15.04;89.05
38466;BME280;24244;51.950;5.902;2023-05-11T06:54:45;101399.81;;;15.04;88.61
38466;BME280;24244;51.950;5.902;2023-05-11T06:57:11;101406.38;;;15.02;88.59
38466;BME280;24244;51.950;5.902;2023-05-11T06:59:40;101397.69;;;15.00;88.92
38466;BME280;24244;51.950;5.902;2023-05-11T07:02:07;101402.88;;;15.01;89.10
38466;BME280;24244;51.950;5.902;2023-05-11T07:04:33;101406.19;;;15.03;88.89
38466;BME280;24244;51.950;5.902;2023-05-11T07:07:00;101408.84;;;15.03;88.92
38466;BME280;24244;51.950;5.902;2023-05-11T07:09:27;101404.13;;;15.05;88.80
38466;BME280;24244;51.950;5.902;2023-05-11T07:11:57;101406.59;;;15.07;88.61
38466;BME280;24244;51.950;5.902;2023-05-11T07:14:24;101409.06;;;15.08;88.57
38466;BME280;24244;51.950;5.902;2023-05-11T07:16:50;101414.22;;;15.03;88.45
38466;BME280;24244;51.950;5.902;2023-05-11T07:19:20;101410.50;;;15.04;88.87
38466;BME280;24244;51.950;5.902;2023-05-11T07:21:46;101422.28;;;15.10;88.74
38466;BME280;24244;51.950;5.902;2023-05-11T07:24:13;101417.78;;;15.17;88.48
38466;BME280;24244;51.950;5.902;2023-05-11T07:26:40;101419.84;;;15.21;88.59
38466;BME280;24244;51.950;5.902;2023-05-11T07:29:08;101419.25;;;15.26;88.51
38466;BME280;24244;51.950;5.902;2023-05-11T07:31:35;101422.97;;;15.32;88.18
38466;BME280;24244;51.950;5.902;2023-05-11T07:34:02;101429.78;;;15.34;88.25
38466;BME280;24244;51.950;5.902;2023-05-11T07:36:30;101428.53;;;15.37;88.15
38466;BME280;24244;51.950;5.902;2023-05-11T07:38:57;101432.88;;;15.38;88.20
38466;BME280;24244;51.950;5.902;2023-05-11T07:41:26;101421.13;;;15.39;88.23
38466;BME280;24244;51.950;5.902;2023-05-11T07:43:53;101428.34;;;15.38;88.20
38466;BME280;24244;51.950;5.902;2023-05-11T07:46:21;101414.13;;;15.38;88.09
38466;BME280;24244;51.950;5.902;2023-05-11T07:48:48;101429.81;;;15.41;88.04
38466;BME280;24244;51.950;5.902;2023-05-11T07:51:23;101414.34;;;15.43;88.04
38466;BME280;24244;51.950;5.902;2023-05-11T07:53:50;101427.34;;;15.46;87.94
38466;BME280;24244;51.950;5.902;2023-05-11T07:56:17;101423.84;;;15.45;87.94
38466;BME280;24244;51.950;5.902;2023-05-11T07:58:44;101423.00;;;15.45;87.81
38466;BME280;24244;51.950;5.902;2023-05-11T08:01:11;101422.81;;;15.46;88.09
38466;BME280;24244;51.950;5.902;2023-05-11T08:03:39;101421.56;;;15.49;87.83
38466;BME280;24244;51.950;5.902;2023-05-11T08:06:11;101422.19;;;15.51;87.69
38466;BME280;24244;51.950;5.902;2023-05-11T08:08:38;101427.84;;;15.56;88.10
38466;BME280;24244;51.950;5.902;2023-05-11T08:11:04;101421.84;;;15.60;87.70
38466;BME280;24244;51.950;5.902;2023-05-11T08:13:31;101425.34;;;15.61;87.67
38466;BME280;24244;51.950;5.902;2023-05-11T08:15:58;101430.72;;;15.61;87.57
38466;BME280;24244;51.950;5.902;2023-05-11T08:18:25;101428.22;;;15.59;87.45
38466;BME280;24244;51.950;5.902;2023-05-11T08:20:53;101435.44;;;15.59;86.99
38466;BME280;24244;51.950;5.902;2023-05-11T08:23:20;101437.28;;;15.58;86.86
38466;BME280;24244;51.950;5.902;2023-05-11T08:25:48;101434.41;;;15.60;86.87
38466;BME280;24244;51.950;5.902;2023-05-11T08:28:17;101435.25;;;15.67;86.74
38466;BME280;24244;51.950;5.902;2023-05-11T08:30:43;101439.81;;;15.73;86.38
38466;BME280;24244;51.950;5.902;2023-05-11T08:33:11;101438.56;;;15.69;86.27
38466;BME280;24244;51.950;5.902;2023-05-11T08:35:59;101439.41;;;15.70;86.25
38466;BME280;24244;51.950;5.902;2023-05-11T08:38:26;101435.91;;;15.76;86.33
38466;BME280;24244;51.950;5.902;2023-05-11T08:40:53;101432.78;;;15.79;86.06
38466;BME280;24244;51.950;5.902;2023-05-11T08:43:21;101439.22;;;15.84;86.21
38466;BME280;24244;51.950;5.902;2023-05-11T08:45:51;101427.88;;;15.89;86.08
38466;BME280;24244;51.950;5.902;2023-05-11T08:48:22;101434.47;;;15.93;85.96
38466;BME280;24244;51.950;5.902;2023-05-11T08:50:49;101431.38;;;15.96;85.75
38466;BME280;24244;51.950;5.902;2023-05-11T08:53:19;101428.72;;;15.96;85.79
38466;BME280;24244;51.950;5.902;2023-05-11T08:55:45;101431.78;;;15.99;85.69
38466;BME280;24244;51.950;5.902;2023-05-11T08:58:13;101427.88;;;16.02;85.75
38466;BME280;24244;51.950;5.902;2023-05-11T09:00:46;101430.56;;;16.09;85.52
38466;BME280;24244;51.950;5.902;2023-05-11T09:03:14;101420.03;;;16.14;85.28
38466;BME280;24244;51.950;5.902;2023-05-11T09:05:44;101428.72;;;16.22;85.06
38466;BME280;24244;51.950;5.902;2023-05-11T09:08:12;101424.78;;;16.31;84.91
38466;BME280;24244;51.950;5.902;2023-05-11T09:10:42;101428.28;;;16.38;84.78
38466;BME280;24244;51.950;5.902;2023-05-11T09:13:11;101423.75;;;16.45;84.63
38466;BME280;24244;51.950;5.902;2023-05-11T09:15:38;101426.41;;;16.52;84.19
38466;BME280;24244;51.950;5.902;2023-05-11T09:18:05;101422.06;;;16.58;84.06
38466;BME280;24244;51.950;5.902;2023-05-11T09:20:33;101422.09;;;16.64;83.63
38466;BME280;24244;51.950;5.902;2023-05-11T09:23:00;101433.44;;;16.66;83.36
38466;BME280;24244;51.950;5.902;2023-05-11T09:25:29;101430.34;;;16.63;83.40
38466;BME280;24244;51.950;5.902;2023-05-11T09:27:59;101430.56;;;16.61;83.28
38466;BME280;24244;51.950;5.902;2023-05-11T09:30:26;101431.16;;;16.63;83.14
38466;BME280;24244;51.950;5.902;2023-05-11T09:32:54;101428.28;;;16.65;83.07
38466;BME280;24244;51.950;5.902;2023-05-11T09:35:24;101431.38;;;16.68;82.95
38466;BME280;24244;51.950;5.902;2023-05-11T09:38:02;101437.16;;;16.72;82.69
38466;BME280;24244;51.950;5.902;2023-05-11T09:40:31;101430.53;;;16.74;82.61
38466;BME280;24244;51.950;5.902;2023-05-11T09:43:02;101433.22;;;16.74;82.36
38466;BME280;24244;51.950;5.902;2023-05-11T09:45:37;101431.78;;;16.72;82.29
38466;BME280;24244;51.950;5.902;2023-05-11T09:48:05;101429.09;;;16.72;82.21
38466;BME280;24244;51.950;5.902;2023-05-11T09:50:35;101436.72;;;16.75;82.40
38466;BME280;24244;51.950;5.902;2023-05-11T09:53:03;101429.06;;;16.78;82.11
38466;BME280;24244;51.950;5.902;2023-05-11T09:55:30;101430.94;;;16.78;81.99
38466;BME280;24244;51.950;5.902;2023-05-11T09:57:58;101430.09;;;16.77;82.15
38466;BME280;24244;51.950;5.902;2023-05-11T10:00:26;101440.84;;;16.77;82.08
38466;BME280;24244;51.950;5.902;2023-05-11T10:03:03;101430.34;;;16.76;81.76
38466;BME280;24244;51.950;5.902;2023-05-11T10:05:33;101431.38;;;16.75;81.95
38466;BME280;24244;51.950;5.902;2023-05-11T10:08:01;101432.41;;;16.74;82.07
38466;BME280;24244;51.950;5.902;2023-05-11T10:10:30;101432.41;;;16.74;82.19
38466;BME280;24244;51.950;5.902;2023-05-11T10:12:59;101432.59;;;16.72;82.20
38466;BME280;24244;51.950;5.902;2023-05-11T10:15:28;101438.16;;;16.71;82.26
38466;BME280;24244;51.950;5.902;2023-05-11T10:17:58;101443.53;;;16.71;82.56
38466;BME280;24244;51.950;5.902;2023-05-11T10:20:27;101441.88;;;16.70;82.60
38466;BME280;24244;51.950;5.902;2023-05-11T10:22:54;101436.75;;;16.68;82.82
38466;BME280;24244;51.950;5.902;2023-05-11T10:25:22;101434.69;;;16.64;83.29
38466;BME280;24244;51.950;5.902;2023-05-11T10:27:50;101434.28;;;16.60;83.26
38466;BME280;24244;51.950;5.902;2023-05-11T10:30:17;101436.13;;;16.47;83.43
38466;BME280;24244;51.950;5.902;2023-05-11T10:32:45;101437.16;;;16.39;84.15
38466;BME280;24244;51.950;5.902;2023-05-11T10:35:13;101448.50;;;16.34;84.19
38466;BME280;24244;51.950;5.902;2023-05-11T10:37:40;101448.75;;;16.33;84.52
38466;BME280;24244;51.950;5.902;2023-05-11T10:40:09;101450.59;;;16.32;84.55
38466;BME280;24244;51.950;5.902;2023-05-11T10:43:05;101449.75;;;16.32;84.69
38466;BME280;24244;51.950;5.902;2023-05-11T10:45:41;101452.03;;;16.28;84.82
38466;BME280;24244;51.950;5.902;2023-05-11T10:48:45;101450.16;;;16.22;84.89
38466;BME280;24244;51.950;5.902;2023-05-11T10:54:37;101456.34;;;16.10;85.25
38466;BME280;24244;51.950;5.902;2023-05-11T10:57:12;101454.69;;;16.02;85.28
38466;BME280;24244;51.950;5.902;2023-05-11T10:59:51;101457.56;;;16.00;85.61
38466;BME280;24244;51.950;5.902;2023-05-11T11:02:29;101451.81;;;15.97;85.64
38466;BME280;24244;51.950;5.902;2023-05-11T11:04:58;101451.56;;;15.92;85.87
38466;BME280;24244;51.950;5.902;2023-05-11T11:07:27;101457.38;;;15.89;85.94
38466;BME280;24244;51.950;5.902;2023-05-11T11:09:57;101451.56;;;15.85;86.10
38466;BME280;24244;51.950;5.902;2023-05-11T11:12:26;101462.91;;;15.81;86.17
38466;BME280;24244;51.950;5.902;2023-05-11T11:14:56;101465.19;;;15.77;86.04
38466;BME280;24244;51.950;5.902;2023-05-11T11:17:25;101462.91;;;15.74;86.46
38466;BME280;24244;51.950;5.902;2023-05-11T11:19:54;101452.00;;;15.76;86.18
38466;BME280;24244;51.950;5.902;2023-05-11T11:22:42;101458.56;;;15.73;86.53
38466;BME280;24244;51.950;5.902;2023-05-11T11:25:10;101456.69;;;15.67;86.50
38466;BME280;24244;51.950;5.902;2023-05-11T11:27:57;101467.41;;;15.60;86.68
38466;BME280;24244;51.950;5.902;2023-05-11T11:30:25;101462.06;;;15.60;86.71
38466;BME280;24244;51.950;5.902;2023-05-11T11:32:55;101461.84;;;15.62;86.87
38466;BME280;24244;51.950;5.902;2023-05-11T11:35:45;101453.81;;;15.62;86.72
38466;BME280;24244;51.950;5.902;2023-05-11T11:38:14;101458.94;;;15.57;86.71
38466;BME280;24244;51.950;5.902;2023-05-11T11:40:43;101446.59;;;15.56;86.78
38466;BME280;24244;51.950;5.902;2023-05-11T11:43:15;101444.31;;;15.53;86.60
38466;BME280;24244;51.950;5.902;2023-05-11T11:45:50;101450.00;;;15.50;86.74
38466;BME280;24244;51.950;5.902;2023-05-11T11:48:22;101443.22;;;15.47;87.04
38466;BME280;24244;51.950;5.902;2023-05-11T11:51:01;101440.75;;;15.46;86.83
38466;BME280;24244;51.950;5.902;2023-05-11T11:53:57;101444.03;;;15.41;87.05
38466;BME280;24244;51.950;5.902;2023-05-11T11:56:39;101440.91;;;15.38;87.20
38466;BME280;24244;51.950;5.902;2023-05-11T11:59:06;101441.31;;;15.35;87.11
38466;BME280;24244;51.950;5.902;2023-05-11T12:01:37;101445.88;;;15.34;87.21
38466;BME280;24244;51.950;5.902;2023-05-11T12:07:14;101441.09;;;15.29;87.25
38466;BME280;24244;51.950;5.902;2023-05-11T12:09:46;101449.53;;;15.26;87.55
38466;BME280;24244;51.950;5.902;2023-05-11T12:12:16;101443.34;;;15.26;87.63
38466;BME280;24244;51.950;5.902;2023-05-11T12:14:44;101438.22;;;15.31;87.66
38466;BME280;24244;51.950;5.902;2023-05-11T12:17:22;101438.25;;;15.38;87.55
38466;BME280;24244;51.950;5.902;2023-05-11T12:19:49;101442.78;;;15.44;87.54
38466;BME280;24244;51.950;5.902;2023-05-11T12:22:21;101439.72;;;15.47;87.39
38466;BME280;24244;51.950;5.902;2023-05-11T12:24:49;101437.03;;;15.47;87.37
38466;BME280;24244;51.950;5.902;2023-05-11T12:27:16;101441.38;;;15.48;87.59
38466;BME280;24244;51.950;5.902;2023-05-11T12:29:48;101438.28;;;15.51;87.59
38466;BME280;24244;51.950;5.902;2023-05-11T12:32:26;101429.88;;;15.54;87.66
38466;BME280;24244;51.950;5.902;2023-05-11T12:34:58;101435.88;;;15.56;87.49
38466;BME280;24244;51.950;5.902;2023-05-11T12:37:25;101428.44;;;15.58;87.71
38466;BME280;24244;51.950;5.902;2023-05-11T12:39:55;101439.59;;;15.61;87.52
38466;BME280;24244;51.950;5.902;2023-05-11T12:42:22;101429.88;;;15.60;87.74
38466;BME280;24244;51.950;5.902;2023-05-11T12:44:51;101435.25;;;15.67;87.70
38466;BME280;24244;51.950;5.902;2023-05-11T12:47:18;101431.97;;;15.72;87.58
38466;BME280;24244;51.950;5.902;2023-05-11T12:49:46;101429.72;;;15.75;87.60
38466;BME280;24244;51.950;5.902;2023-05-11T12:52:14;101423.09;;;15.78;87.25
38466;BME280;24244;51.950;5.902;2023-05-11T12:54:47;101426.41;;;15.80;87.48
38466;BME280;24244;51.950;5.902;2023-05-11T12:57:23;101437.13;;;15.80;87.42
38466;BME280;24244;51.950;5.902;2023-05-11T13:00:05;101436.75;;;15.83;87.53
38466;BME280;24244;51.950;5.902;2023-05-11T13:02:34;101429.72;;;15.82;87.61
38466;BME280;24244;51.950;5.902;2023-05-11T13:05:09;101429.28;;;15.85;87.61
38466;BME280;24244;51.950;5.902;2023-05-11T13:07:37;101428.91;;;15.88;87.85
38466;BME280;24244;51.950;5.902;2023-05-11T13:10:07;101429.34;;;15.91;87.54
38466;BME280;24244;51.950;5.902;2023-05-11T13:12:48;101429.53;;;15.96;87.62
38466;BME280;24244;51.950;5.902;2023-05-11T13:15:18;101428.28;;;15.99;87.53